sensor_id;sensor_type;location;lat;lon;timestamp;P1;durP1;ratioP1;P2;durP2;ratioP2
16862;SDS011;52193;48.216;-1.698;2024-03-23T00:53:07;8.02;;;3.90;;
16862;SDS011;52193;48.216;-1.698;2024-03-23T00:55:33;9.48;;;3.63;;
16862;SDS011;52193;48.216;-1.698;2024-03-23T00:58:00;7.28;;;3.40;;
16862;SDS011;52193;48.216;-1.698;2024-03-23T01:00:26;11.20;;;3.88;;
16862;SDS011;52193;48.216;-1.698;2024-03-23T01:02:53;7.95;;;3.65;;
16862;SDS011;52193;48.216;-1.698;2024-03-23T01:05:19;9.82;;;4.40;;
16862;SDS011;52193;48.216;-1.698;2024-03-23T01:07:46;8.57;;;3.70;;
16862;SDS011;52193;48.216;-1.698;2024-03-23T01:10:13;6.55;;;3.30;;
16862;SDS011;52193;48.216;-1.698;2024-03-23T01:12:40;8.05;;;3.40;;
16862;SDS011;52193;48.216;-1.698;2024-03-23T01:15:06;9.65;;;3.40;;
16862;SDS011;52193;48.216;-1.698;2024-03-23T01:17:34;8.57;;;3.60;;
16862;SDS011;52193;48.216;-1.698;2024-03-23T01:20:00;9.93;;;3.90;;
16862;SDS011;52193;48.216;-1.698;2024-03-23T01:22:26;7.95;;;3.78;;
16862;SDS011;52193;48.216;-1.698;2024-03-23T01:24:52;7.50;;;3.60;;
16862;SDS011;52193;48.216;-1.698;2024-03-23T01:27:20;10.77;;;4.18;;
16862;SDS011;52193;48.216;-1.698;2024-03-23T01:29:46;8.73;;;4.20;;
16862;SDS011;52193;48.216;-1.698;2024-03-23T01:32:13;6.38;;;3.78;;
16862;SDS011;52193;48.216;-1.698;2024-03-23T01:34:39;9.80;;;4.38;;
16862;SDS011;52193;48.216;-1.698;2024-03-23T01:37:06;22.40;;;15.98;;
16862;SDS011;52193;48.216;-1.698;2024-03-23T01:39:32;16.55;;;8.77;;
16862;SDS011;52193;48.216;-1.698;2024-03-23T01:41:59;9.57;;;5.00;;
16862;SDS011;52193;48.216;-1.698;2024-03-23T01:44:26;9.45;;;3.90;;
16862;SDS011;52193;48.216;-1.698;2024-03-23T01:46:53;8.77;;;3.80;;
16862;SDS011;52193;48.216;-1.698;2024-03-23T01:49:19;6.55;;;3.63;;
16862;SDS011;52193;48.216;-1.698;2024-03-23T01:51:46;8.68;;;3.58;;
16862;SDS011;52193;48.216;-1.698;2024-03-23T01:54:12;11.02;;;3.58;;
16862;SDS011;52193;48.216;-1.698;2024-03-23T01:56:39;9.13;;;3.80;;
16862;SDS011;52193;48.216;-1.698;2024-03-23T01:59:05;7.78;;;3.28;;
16862;SDS011;52193;48.216;-1.698;2024-03-23T02:01:34;7.68;;;3.35;;
16862;SDS011;52193;48.216;-1.698;2024-03-23T02:04:01;7.57;;;3.40;;
16862;SDS011;52193;48.216;-1.698;2024-03-23T02:06:28;8.98;;;3.65;;
16862;SDS011;52193;48.216;-1.698;2024-03-23T02:08:54;9.98;;;3.00;;
16862;SDS011;52193;48.216;-1.698;2024-03-23T02:11:21;9.80;;;3.40;;
16862;SDS011;52193;48.216;-1.698;2024-03-23T02:13:47;7.65;;;3.58;;
16862;SDS011;52193;48.216;-1.698;2024-03-23T02:16:14;7.57;;;3.20;;
16862;SDS011;52193;48.216;-1.698;2024-03-23T02:18:41;9.73;;;3.40;;
16862;SDS011;52193;48.216;-1.698;2024-03-23T02:21:08;9.38;;;3.17;;
16862;SDS011;52193;48.216;-1.698;2024-03-23T02:23:35;8.20;;;3.38;;
16862;SDS011;52193;48.216;-1.698;2024-03-23T02:26:02;8.18;;;3.22;;
16862;SDS011;52193;48.216;-1.698;2024-03-23T02:28:28;5.97;;;3.15;;
16862;SDS011;52193;48.216;-1.698;2024-03-23T02:30:55;8.32;;;3.40;;
16862;SDS011;52193;48.216;-1.698;2024-03-23T02:33:23;9.18;;;3.63;;
16862;SDS011;52193;48.216;-1.698;2024-03-23T02:35:49;10.10;;;3.28;;
16862;SDS011;52193;48.216;-1.698;2024-03-23T02:38:16;7.82;;;3.17;;
16862;SDS011;52193;48.216;-1.698;2024-03-23T02:40:43;5.60;;;3.05;;
16862;SDS011;52193;48.216;-1.698;2024-03-23T02:43:10;9.70;;;3.65;;
16862;SDS011;52193;48.216;-1.698;2024-03-23T02:45:36;7.28;;;3.20;;
16862;SDS011;52193;48.216;-1.698;2024-03-23T02:48:03;8.30;;;3.50;;
16862;SDS011;52193;48.216;-1.698;2024-03-23T02:50:29;7.22;;;2.92;;
16862;SDS011;52193;48.216;-1.698;2024-03-23T02:52:56;8.27;;;2.90;;
16862;SDS011;52193;48.216;-1.698;2024-03-23T02:55:22;7.70;;;3.33;;
16862;SDS011;52193;48.216;-1.698;2024-03-23T02:57:50;6.78;;;3.20;;
16862;SDS011;52193;48.216;-1.698;2024-03-23T03:00:16;6.20;;;2.72;;
16862;SDS011;52193;48.216;-1.698;2024-03-23T03:02:43;9.63;;;3.42;;
16862;SDS011;52193;48.216;-1.698;2024-03-23T03:05:09;8.73;;;3.38;;
16862;SDS011;52193;48.216;-1.698;2024-03-23T03:07:37;8.65;;;3.42;;
16862;SDS011;52193;48.216;-1.698;2024-03-23T03:10:06;7.80;;;3.15;;
16862;SDS011;52193;48.216;-1.698;2024-03-23T03:12:36;6.22;;;2.50;;
16862;SDS011;52193;48.216;-1.698;2024-03-23T03:15:04;8.93;;;2.78;;
16862;SDS011;52193;48.216;-1.698;2024-03-23T03:17:31;6.07;;;3.08;;
16862;SDS011;52193;48.216;-1.698;2024-03-23T03:19:57;7.28;;;2.80;;
16862;SDS011;52193;48.216;-1.698;2024-03-23T03:22:24;6.80;;;2.80;;
16862;SDS011;52193;48.216;-1.698;2024-03-23T03:24:50;5.47;;;2.65;;
16862;SDS011;52193;48.216;-1.698;2024-03-23T03:27:17;6.80;;;2.72;;
16862;SDS011;52193;48.216;-1.698;2024-03-23T03:29:43;5.40;;;2.67;;
16862;SDS011;52193;48.216;-1.698;2024-03-23T03:32:11;5.22;;;2.80;;
16862;SDS011;52193;48.216;-1.698;2024-03-23T03:34:37;6.32;;;3.15;;
16862;SDS011;52193;48.216;-1.698;2024-03-23T03:37:04;7.93;;;2.95;;
16862;SDS011;52193;48.216;-1.698;2024-03-23T03:39:30;7.50;;;3.08;;
16862;SDS011;52193;48.216;-1.698;2024-03-23T03:41:57;8.40;;;3.47;;
16862;SDS011;52193;48.216;-1.698;2024-03-23T03:44:23;5.65;;;2.63;;
16862;SDS011;52193;48.216;-1.698;2024-03-23T03:46:49;7.80;;;3.38;;
16862;SDS011;52193;48.216;-1.698;2024-03-23T03:49:17;7.82;;;3.03;;
16862;SDS011;52193;48.216;-1.698;2024-03-23T03:51:43;6.63;;;3.22;;
16862;SDS011;52193;48.216;-1.698;2024-03-23T03:54:09;7.78;;;3.40;;
16862;SDS011;52193;48.216;-1.698;2024-03-23T03:56:36;8.95;;;3.55;;
16862;SDS011;52193;48.216;-1.698;2024-03-23T03:59:02;7.53;;;3.17;;
16862;SDS011;52193;48.216;-1.698;2024-03-23T04:01:29;11.07;;;3.38;;
16862;SDS011;52193;48.216;-1.698;2024-03-23T04:03:55;8.32;;;3.40;;
16862;SDS011;52193;48.216;-1.698;2024-03-23T04:06:23;6.72;;;3.25;;
16862;SDS011;52193;48.216;-1.698;2024-03-23T04:08:49;7.22;;;3.88;;
16862;SDS011;52193;48.216;-1.698;2024-03-23T04:11:17;6.90;;;3.30;;
16862;SDS011;52193;48.216;-1.698;2024-03-23T04:13:43;5.80;;;2.90;;
16862;SDS011;52193;48.216;-1.698;2024-03-23T04:16:10;8.48;;;3.40;;
16862;SDS011;52193;48.216;-1.698;2024-03-23T04:18:35;5.65;;;3.28;;
16862;SDS011;52193;48.216;-1.698;2024-03-23T04:21:02;6.22;;;2.88;;
16862;SDS011;52193;48.216;-1.698;2024-03-23T04:23:30;5.07;;;2.67;;
16862;SDS011;52193;48.216;-1.698;2024-03-23T04:26:02;8.90;;;3.60;;
16862;SDS011;52193;48.216;-1.698;2024-03-23T04:28:29;6.25;;;3.08;;
16862;SDS011;52193;48.216;-1.698;2024-03-23T04:30:56;5.10;;;2.90;;
16862;SDS011;52193;48.216;-1.698;2024-03-23T04:33:21;8.52;;;3.75;;
16862;SDS011;52193;48.216;-1.698;2024-03-23T04:35:49;7.25;;;3.33;;
16862;SDS011;52193;48.216;-1.698;2024-03-23T04:38:15;4.70;;;3.17;;
16862;SDS011;52193;48.216;-1.698;2024-03-23T04:40:43;5.68;;;3.45;;
16862;SDS011;52193;48.216;-1.698;2024-03-23T04:43:10;6.00;;;3.45;;
16862;SDS011;52193;48.216;-1.698;2024-03-23T04:45:37;8.20;;;3.00;;
16862;SDS011;52193;48.216;-1.698;2024-03-23T04:48:04;5.75;;;2.78;;
16862;SDS011;52193;48.216;-1.698;2024-03-23T04:50:31;5.82;;;3.22;;
16862;SDS011;52193;48.216;-1.698;2024-03-23T04:52:58;7.50;;;2.80;;
16862;SDS011;52193;48.216;-1.698;2024-03-23T04:55:24;6.65;;;2.85;;
16862;SDS011;52193;48.216;-1.698;2024-03-23T04:57:53;6.75;;;2.88;;
16862;SDS011;52193;48.216;-1.698;2024-03-23T05:00:19;6.00;;;2.45;;
16862;SDS011;52193;48.216;-1.698;2024-03-23T05:02:46;4.32;;;2.17;;
16862;SDS011;52193;48.216;-1.698;2024-03-23T05:05:11;5.68;;;2.42;;
16862;SDS011;52193;48.216;-1.698;2024-03-23T05:07:39;4.72;;;2.58;;
16862;SDS011;52193;48.216;-1.698;2024-03-23T05:10:05;4.10;;;2.40;;
16862;SDS011;52193;48.216;-1.698;2024-03-23T05:12:35;4.78;;;2.53;;
16862;SDS011;52193;48.216;-1.698;2024-03-23T05:15:04;6.03;;;2.65;;
16862;SDS011;52193;48.216;-1.698;2024-03-23T05:17:30;5.88;;;3.88;;
16862;SDS011;52193;48.216;-1.698;2024-03-23T05:19:57;5.55;;;3.38;;
16862;SDS011;52193;48.216;-1.698;2024-03-23T05:22:23;6.32;;;3.53;;
16862;SDS011;52193;48.216;-1.698;2024-03-23T05:24:50;7.60;;;3.60;;
16862;SDS011;52193;48.216;-1.698;2024-03-23T05:27:16;5.88;;;3.75;;
16862;SDS011;52193;48.216;-1.698;2024-03-23T05:29:43;6.07;;;3.55;;
16862;SDS011;52193;48.216;-1.698;2024-03-23T05:32:10;8.65;;;3.30;;
16862;SDS011;52193;48.216;-1.698;2024-03-23T05:34:37;6.28;;;3.20;;
16862;SDS011;52193;48.216;-1.698;2024-03-23T05:37:03;6.32;;;3.22;;
16862;SDS011;52193;48.216;-1.698;2024-03-23T05:39:30;7.18;;;3.25;;
16862;SDS011;52193;48.216;-1.698;2024-03-23T05:41:55;4.93;;;2.92;;
16862;SDS011;52193;48.216;-1.698;2024-03-23T05:44:22;4.20;;;2.72;;
16862;SDS011;52193;48.216;-1.698;2024-03-23T05:46:48;5.00;;;2.33;;
16862;SDS011;52193;48.216;-1.698;2024-03-23T05:49:16;4.70;;;2.80;;
16862;SDS011;52193;48.216;-1.698;2024-03-23T05:51:43;5.10;;;2.35;;
16862;SDS011;52193;48.216;-1.698;2024-03-23T05:54:10;5.82;;;2.53;;
16862;SDS011;52193;48.216;-1.698;2024-03-23T05:56:36;6.38;;;2.90;;
16862;SDS011;52193;48.216;-1.698;2024-03-23T05:59:02;6.63;;;2.83;;
16862;SDS011;52193;48.216;-1.698;2024-03-23T06:01:28;5.40;;;3.00;;
16862;SDS011;52193;48.216;-1.698;2024-03-23T06:03:57;5.43;;;2.50;;
16862;SDS011;52193;48.216;-1.698;2024-03-23T06:06:25;4.78;;;2.35;;
16862;SDS011;52193;48.216;-1.698;2024-03-23T06:08:51;5.25;;;2.50;;
16862;SDS011;52193;48.216;-1.698;2024-03-23T06:11:17;5.68;;;2.53;;
16862;SDS011;52193;48.216;-1.698;2024-03-23T06:13:44;4.80;;;2.20;;
16862;SDS011;52193;48.216;-1.698;2024-03-23T06:16:10;5.45;;;2.60;;
16862;SDS011;52193;48.216;-1.698;2024-03-23T06:18:37;4.38;;;2.60;;
16862;SDS011;52193;48.216;-1.698;2024-03-23T06:21:03;5.40;;;2.70;;
16862;SDS011;52193;48.216;-1.698;2024-03-23T06:23:31;4.00;;;2.70;;
16862;SDS011;52193;48.216;-1.698;2024-03-23T06:25:58;4.30;;;2.95;;
16862;SDS011;52193;48.216;-1.698;2024-03-23T06:28:24;8.05;;;3.50;;
16862;SDS011;52193;48.216;-1.698;2024-03-23T06:30:51;6.18;;;3.75;;
16862;SDS011;52193;48.216;-1.698;2024-03-23T06:33:17;4.97;;;3.75;;
16862;SDS011;52193;48.216;-1.698;2024-03-23T06:35:49;6.15;;;3.35;;
16862;SDS011;52193;48.216;-1.698;2024-03-23T06:38:15;4.05;;;3.00;;
16862;SDS011;52193;48.216;-1.698;2024-03-23T06:40:43;4.90;;;2.78;;
16862;SDS011;52193;48.216;-1.698;2024-03-23T06:43:12;4.90;;;2.80;;
16862;SDS011;52193;48.216;-1.698;2024-03-23T06:45:39;6.50;;;2.90;;
16862;SDS011;52193;48.216;-1.698;2024-03-23T06:48:05;3.67;;;2.53;;
16862;SDS011;52193;48.216;-1.698;2024-03-23T06:50:33;5.93;;;2.50;;
16862;SDS011;52193;48.216;-1.698;2024-03-23T06:53:00;5.53;;;2.40;;
16862;SDS011;52193;48.216;-1.698;2024-03-23T06:55:27;3.30;;;2.53;;
16862;SDS011;52193;48.216;-1.698;2024-03-23T06:57:55;4.55;;;2.53;;
16862;SDS011;52193;48.216;-1.698;2024-03-23T07:00:21;3.40;;;2.47;;
16862;SDS011;52193;48.216;-1.698;2024-03-23T07:02:48;6.05;;;3.15;;
16862;SDS011;52193;48.216;-1.698;2024-03-23T07:05:14;5.70;;;2.83;;
16862;SDS011;52193;48.216;-1.698;2024-03-23T07:07:41;4.63;;;3.05;;
16862;SDS011;52193;48.216;-1.698;2024-03-23T07:10:07;4.47;;;2.85;;
16862;SDS011;52193;48.216;-1.698;2024-03-23T07:12:34;5.10;;;2.50;;
16862;SDS011;52193;48.216;-1.698;2024-03-23T07:15:01;5.72;;;2.97;;
16862;SDS011;52193;48.216;-1.698;2024-03-23T07:17:29;4.07;;;2.70;;
16862;SDS011;52193;48.216;-1.698;2024-03-23T07:19:54;4.13;;;2.58;;
16862;SDS011;52193;48.216;-1.698;2024-03-23T07:22:21;5.50;;;2.83;;
16862;SDS011;52193;48.216;-1.698;2024-03-23T07:24:49;5.03;;;2.75;;
16862;SDS011;52193;48.216;-1.698;2024-03-23T07:27:17;4.72;;;3.03;;
16862;SDS011;52193;48.216;-1.698;2024-03-23T07:29:43;4.20;;;2.70;;
16862;SDS011;52193;48.216;-1.698;2024-03-23T07:32:11;5.82;;;3.50;;
16862;SDS011;52193;48.216;-1.698;2024-03-23T07:34:37;5.60;;;3.40;;
16862;SDS011;52193;48.216;-1.698;2024-03-23T07:37:04;4.45;;;2.85;;
16862;SDS011;52193;48.216;-1.698;2024-03-23T07:39:30;6.10;;;3.10;;
16862;SDS011;52193;48.216;-1.698;2024-03-23T07:41:59;4.38;;;3.10;;
16862;SDS011;52193;48.216;-1.698;2024-03-23T07:44:24;4.85;;;2.90;;
16862;SDS011;52193;48.216;-1.698;2024-03-23T07:46:51;6.10;;;3.50;;
16862;SDS011;52193;48.216;-1.698;2024-03-23T07:49:19;6.18;;;3.40;;
16862;SDS011;52193;48.216;-1.698;2024-03-23T07:51:46;4.75;;;3.47;;
16862;SDS011;52193;48.216;-1.698;2024-03-23T07:54:12;5.75;;;3.70;;
16862;SDS011;52193;48.216;-1.698;2024-03-23T07:56:39;6.35;;;3.78;;
16862;SDS011;52193;48.216;-1.698;2024-03-23T07:59:04;5.10;;;3.38;;
16862;SDS011;52193;48.216;-1.698;2024-03-23T08:01:31;6.60;;;3.50;;
16862;SDS011;52193;48.216;-1.698;2024-03-23T08:03:57;7.40;;;3.83;;
16862;SDS011;52193;48.216;-1.698;2024-03-23T08:06:25;5.85;;;3.50;;
16862;SDS011;52193;48.216;-1.698;2024-03-23T08:08:55;6.85;;;3.50;;
16862;SDS011;52193;48.216;-1.698;2024-03-23T08:11:25;6.55;;;3.70;;
16862;SDS011;52193;48.216;-1.698;2024-03-23T08:13:51;4.85;;;3.33;;
16862;SDS011;52193;48.216;-1.698;2024-03-23T08:16:18;7.15;;;3.58;;
16862;SDS011;52193;48.216;-1.698;2024-03-23T08:18:44;6.30;;;3.80;;
16862;SDS011;52193;48.216;-1.698;2024-03-23T08:21:11;5.03;;;3.22;;
16862;SDS011;52193;48.216;-1.698;2024-03-23T08:23:39;4.78;;;3.30;;
16862;SDS011;52193;48.216;-1.698;2024-03-23T08:26:06;6.13;;;3.30;;
16862;SDS011;52193;48.216;-1.698;2024-03-23T08:28:35;8.75;;;3.63;;
16862;SDS011;52193;48.216;-1.698;2024-03-23T08:31:03;5.95;;;3.30;;
16862;SDS011;52193;48.216;-1.698;2024-03-23T08:33:30;5.15;;;2.90;;
16862;SDS011;52193;48.216;-1.698;2024-03-23T08:35:58;4.22;;;3.00;;
16862;SDS011;52193;48.216;-1.698;2024-03-23T08:38:25;5.70;;;3.85;;
16862;SDS011;52193;48.216;-1.698;2024-03-23T08:40:58;6.07;;;3.28;;
16862;SDS011;52193;48.216;-1.698;2024-03-23T08:43:24;5.43;;;2.83;;
16862;SDS011;52193;48.216;-1.698;2024-03-23T08:45:52;21.30;;;13.45;;
16862;SDS011;52193;48.216;-1.698;2024-03-23T08:48:18;7.55;;;3.20;;
16862;SDS011;52193;48.216;-1.698;2024-03-23T08:50:46;6.35;;;3.28;;
16862;SDS011;52193;48.216;-1.698;2024-03-23T08:53:12;6.88;;;3.38;;
16862;SDS011;52193;48.216;-1.698;2024-03-23T08:55:39;5.95;;;3.20;;
16862;SDS011;52193;48.216;-1.698;2024-03-23T08:58:07;9.15;;;3.90;;
16862;SDS011;52193;48.216;-1.698;2024-03-23T09:00:34;8.60;;;3.63;;
16862;SDS011;52193;48.216;-1.698;2024-03-23T09:03:00;8.88;;;3.85;;
16862;SDS011;52193;48.216;-1.698;2024-03-23T09:05:29;6.25;;;3.38;;
16862;SDS011;52193;48.216;-1.698;2024-03-23T09:08:01;7.97;;;3.88;;
16862;SDS011;52193;48.216;-1.698;2024-03-23T09:10:28;9.07;;;3.60;;
16862;SDS011;52193;48.216;-1.698;2024-03-23T09:12:54;8.13;;;2.88;;
16862;SDS011;52193;48.216;-1.698;2024-03-23T09:15:22;9.15;;;3.60;;
16862;SDS011;52193;48.216;-1.698;2024-03-23T09:17:48;7.35;;;3.33;;
16862;SDS011;52193;48.216;-1.698;2024-03-23T09:20:15;8.52;;;3.67;;
16862;SDS011;52193;48.216;-1.698;2024-03-23T09:22:41;7.60;;;3.60;;
16862;SDS011;52193;48.216;-1.698;2024-03-23T09:25:08;8.63;;;3.38;;
16862;SDS011;52193;48.216;-1.698;2024-03-23T09:27:33;11.38;;;3.90;;
16862;SDS011;52193;48.216;-1.698;2024-03-23T09:30:00;9.32;;;3.95;;
16862;SDS011;52193;48.216;-1.698;2024-03-23T09:32:27;9.90;;;3.95;;
16862;SDS011;52193;48.216;-1.698;2024-03-23T09:34:54;14.13;;;4.20;;
16862;SDS011;52193;48.216;-1.698;2024-03-23T09:37:20;11.60;;;4.10;;
16862;SDS011;52193;48.216;-1.698;2024-03-23T09:39:47;7.68;;;3.17;;
16862;SDS011;52193;48.216;-1.698;2024-03-23T09:42:13;6.85;;;3.28;;
16862;SDS011;52193;48.216;-1.698;2024-03-23T09:44:40;10.43;;;3.70;;
16862;SDS011;52193;48.216;-1.698;2024-03-23T09:47:06;11.02;;;3.10;;
16862;SDS011;52193;48.216;-1.698;2024-03-23T09:49:35;12.80;;;3.65;;
16862;SDS011;52193;48.216;-1.698;2024-03-23T09:52:01;14.25;;;3.65;;
16862;SDS011;52193;48.216;-1.698;2024-03-23T09:54:29;6.40;;;3.40;;
16862;SDS011;52193;48.216;-1.698;2024-03-23T09:56:55;12.20;;;3.22;;
16862;SDS011;52193;48.216;-1.698;2024-03-23T09:59:22;10.02;;;3.20;;
16862;SDS011;52193;48.216;-1.698;2024-03-23T10:01:48;8.20;;;3.13;;
16862;SDS011;52193;48.216;-1.698;2024-03-23T10:07:10;10.60;;;3.75;;
16862;SDS011;52193;48.216;-1.698;2024-03-23T10:09:38;8.50;;;3.47;;
16862;SDS011;52193;48.216;-1.698;2024-03-23T10:12:11;7.97;;;3.30;;
16862;SDS011;52193;48.216;-1.698;2024-03-23T10:14:40;8.65;;;3.22;;
16862;SDS011;52193;48.216;-1.698;2024-03-23T10:17:13;8.90;;;3.50;;
16862;SDS011;52193;48.216;-1.698;2024-03-23T10:19:44;6.97;;;3.22;;
16862;SDS011;52193;48.216;-1.698;2024-03-23T10:22:12;10.07;;;3.38;;
16862;SDS011;52193;48.216;-1.698;2024-03-23T10:24:41;9.15;;;3.50;;
16862;SDS011;52193;48.216;-1.698;2024-03-23T10:27:07;16.05;;;4.22;;
16862;SDS011;52193;48.216;-1.698;2024-03-23T10:29:34;8.20;;;3.20;;
16862;SDS011;52193;48.216;-1.698;2024-03-23T10:34:46;8.20;;;2.75;;
16862;SDS011;52193;48.216;-1.698;2024-03-23T10:37:12;10.15;;;3.35;;
16862;SDS011;52193;48.216;-1.698;2024-03-23T10:39:39;7.13;;;3.30;;
16862;SDS011;52193;48.216;-1.698;2024-03-23T10:42:06;4.70;;;2.53;;
16862;SDS011;52193;48.216;-1.698;2024-03-23T10:44:35;6.93;;;2.95;;
16862;SDS011;52193;48.216;-1.698;2024-03-23T10:47:01;5.65;;;2.50;;
16862;SDS011;52193;48.216;-1.698;2024-03-23T10:49:30;6.28;;;2.70;;
16862;SDS011;52193;48.216;-1.698;2024-03-23T10:51:59;9.57;;;3.42;;
16862;SDS011;52193;48.216;-1.698;2024-03-23T10:54:27;8.32;;;3.08;;
16862;SDS011;52193;48.216;-1.698;2024-03-23T10:56:56;7.13;;;3.10;;
16862;SDS011;52193;48.216;-1.698;2024-03-23T10:59:27;6.50;;;2.53;;
16862;SDS011;52193;48.216;-1.698;2024-03-23T11:01:54;4.30;;;2.40;;
16862;SDS011;52193;48.216;-1.698;2024-03-23T11:04:31;9.80;;;2.28;;
16862;SDS011;52193;48.216;-1.698;2024-03-23T11:06:59;5.70;;;2.55;;
16862;SDS011;52193;48.216;-1.698;2024-03-23T11:09:38;4.10;;;2.28;;
16862;SDS011;52193;48.216;-1.698;2024-03-23T11:12:09;7.10;;;2.30;;
16862;SDS011;52193;48.216;-1.698;2024-03-23T11:14:51;5.72;;;3.72;;
16862;SDS011;52193;48.216;-1.698;2024-03-23T11:17:19;8.25;;;2.40;;
16862;SDS011;52193;48.216;-1.698;2024-03-23T11:19:52;4.63;;;2.47;;
16862;SDS011;52193;48.216;-1.698;2024-03-23T11:25:15;4.07;;;2.10;;
16862;SDS011;52193;48.216;-1.698;2024-03-23T11:27:43;7.05;;;2.60;;
16862;SDS011;52193;48.216;-1.698;2024-03-23T11:30:11;5.43;;;2.15;;
16862;SDS011;52193;48.216;-1.698;2024-03-23T11:32:38;4.93;;;2.13;;
16862;SDS011;52193;48.216;-1.698;2024-03-23T11:35:05;3.20;;;2.22;;
16862;SDS011;52193;48.216;-1.698;2024-03-23T11:37:32;5.20;;;2.35;;
16862;SDS011;52193;48.216;-1.698;2024-03-23T11:40:00;4.45;;;2.40;;
16862;SDS011;52193;48.216;-1.698;2024-03-23T11:42:26;4.28;;;2.25;;
16862;SDS011;52193;48.216;-1.698;2024-03-23T11:44:53;6.05;;;2.30;;
16862;SDS011;52193;48.216;-1.698;2024-03-23T11:47:19;3.55;;;2.20;;
16862;SDS011;52193;48.216;-1.698;2024-03-23T11:49:48;4.60;;;2.10;;
16862;SDS011;52193;48.216;-1.698;2024-03-23T11:52:14;4.40;;;2.35;;
16862;SDS011;52193;48.216;-1.698;2024-03-23T11:54:42;5.38;;;2.53;;
16862;SDS011;52193;48.216;-1.698;2024-03-23T11:57:10;3.83;;;2.17;;
16862;SDS011;52193;48.216;-1.698;2024-03-23T11:59:37;4.57;;;2.00;;
16862;SDS011;52193;48.216;-1.698;2024-03-23T12:02:08;3.17;;;1.90;;
16862;SDS011;52193;48.216;-1.698;2024-03-23T12:04:36;4.97;;;2.10;;
16862;SDS011;52193;48.216;-1.698;2024-03-23T12:07:12;4.35;;;2.42;;
16862;SDS011;52193;48.216;-1.698;2024-03-23T12:09:39;4.78;;;1.95;;
16862;SDS011;52193;48.216;-1.698;2024-03-23T12:12:07;6.15;;;2.15;;
16862;SDS011;52193;48.216;-1.698;2024-03-23T12:14:37;4.85;;;2.38;;
16862;SDS011;52193;48.216;-1.698;2024-03-23T12:19:48;7.88;;;2.70;;
16862;SDS011;52193;48.216;-1.698;2024-03-23T12:22:14;5.18;;;2.30;;
16862;SDS011;52193;48.216;-1.698;2024-03-23T12:24:40;2.63;;;1.75;;
16862;SDS011;52193;48.216;-1.698;2024-03-23T12:27:11;5.60;;;2.10;;
16862;SDS011;52193;48.216;-1.698;2024-03-23T12:29:38;5.25;;;1.90;;
16862;SDS011;52193;48.216;-1.698;2024-03-23T12:32:04;2.78;;;1.95;;
16862;SDS011;52193;48.216;-1.698;2024-03-23T12:34:32;3.83;;;2.10;;
16862;SDS011;52193;48.216;-1.698;2024-03-23T12:36:58;2.97;;;1.90;;
16862;SDS011;52193;48.216;-1.698;2024-03-23T12:39:25;6.15;;;2.30;;
16862;SDS011;52193;48.216;-1.698;2024-03-23T12:41:51;5.00;;;2.70;;
16862;SDS011;52193;48.216;-1.698;2024-03-23T12:44:19;3.10;;;1.90;;
16862;SDS011;52193;48.216;-1.698;2024-03-23T12:46:46;5.57;;;2.50;;
16862;SDS011;52193;48.216;-1.698;2024-03-23T12:49:13;2.95;;;1.83;;
16862;SDS011;52193;48.216;-1.698;2024-03-23T12:51:39;5.30;;;1.90;;
16862;SDS011;52193;48.216;-1.698;2024-03-23T12:54:11;5.03;;;2.30;;
16862;SDS011;52193;48.216;-1.698;2024-03-23T12:56:37;4.85;;;1.98;;
16862;SDS011;52193;48.216;-1.698;2024-03-23T12:59:04;3.38;;;1.90;;
16862;SDS011;52193;48.216;-1.698;2024-03-23T13:01:31;4.25;;;2.05;;
16862;SDS011;52193;48.216;-1.698;2024-03-23T13:03:58;6.72;;;2.40;;
16862;SDS011;52193;48.216;-1.698;2024-03-23T13:06:26;4.63;;;1.95;;
16862;SDS011;52193;48.216;-1.698;2024-03-23T13:08:57;4.30;;;2.13;;
16862;SDS011;52193;48.216;-1.698;2024-03-23T13:11:23;4.60;;;1.95;;
16862;SDS011;52193;48.216;-1.698;2024-03-23T13:13:50;3.25;;;2.00;;
16862;SDS011;52193;48.216;-1.698;2024-03-23T13:16:16;4.10;;;2.25;;
16862;SDS011;52193;48.216;-1.698;2024-03-23T13:18:44;5.35;;;2.10;;
16862;SDS011;52193;48.216;-1.698;2024-03-23T13:21:10;2.67;;;2.17;;
16862;SDS011;52193;48.216;-1.698;2024-03-23T13:23:37;3.50;;;1.83;;
16862;SDS011;52193;48.216;-1.698;2024-03-23T13:26:06;3.78;;;1.70;;
16862;SDS011;52193;48.216;-1.698;2024-03-23T13:28:33;2.53;;;1.40;;
16862;SDS011;52193;48.216;-1.698;2024-03-23T13:31:00;2.85;;;1.70;;
16862;SDS011;52193;48.216;-1.698;2024-03-23T13:33:28;3.40;;;1.63;;
16862;SDS011;52193;48.216;-1.698;2024-03-23T13:35:56;3.72;;;1.80;;
16862;SDS011;52193;48.216;-1.698;2024-03-23T13:38:23;4.35;;;1.83;;
16862;SDS011;52193;48.216;-1.698;2024-03-23T13:40:53;2.65;;;1.60;;
16862;SDS011;52193;48.216;-1.698;2024-03-23T13:43:20;4.80;;;1.67;;
16862;SDS011;52193;48.216;-1.698;2024-03-23T13:45:48;3.28;;;1.70;;
16862;SDS011;52193;48.216;-1.698;2024-03-23T13:48:16;2.63;;;1.80;;
16862;SDS011;52193;48.216;-1.698;2024-03-23T13:50:45;3.58;;;1.70;;
16862;SDS011;52193;48.216;-1.698;2024-03-23T13:53:14;3.13;;;1.58;;
16862;SDS011;52193;48.216;-1.698;2024-03-23T13:55:46;2.30;;;1.80;;
16862;SDS011;52193;48.216;-1.698;2024-03-23T13:58:12;2.30;;;1.60;;
16862;SDS011;52193;48.216;-1.698;2024-03-23T14:00:39;2.97;;;1.52;;
16862;SDS011;52193;48.216;-1.698;2024-03-23T14:03:07;2.30;;;1.60;;
16862;SDS011;52193;48.216;-1.698;2024-03-23T14:05:34;2.20;;;1.42;;
16862;SDS011;52193;48.216;-1.698;2024-03-23T14:08:00;2.58;;;1.45;;
16862;SDS011;52193;48.216;-1.698;2024-03-23T14:10:28;1.50;;;1.13;;
16862;SDS011;52193;48.216;-1.698;2024-03-23T14:12:54;2.33;;;1.48;;
16862;SDS011;52193;48.216;-1.698;2024-03-23T14:15:21;2.17;;;1.35;;
16862;SDS011;52193;48.216;-1.698;2024-03-23T14:17:47;1.45;;;1.00;;
16862;SDS011;52193;48.216;-1.698;2024-03-23T14:20:15;2.53;;;1.40;;
16862;SDS011;52193;48.216;-1.698;2024-03-23T14:22:41;2.78;;;1.65;;
16862;SDS011;52193;48.216;-1.698;2024-03-23T14:25:08;1.10;;;1.00;;
16862;SDS011;52193;48.216;-1.698;2024-03-23T14:27:36;1.50;;;1.20;;
16862;SDS011;52193;48.216;-1.698;2024-03-23T14:30:03;2.85;;;1.60;;
16862;SDS011;52193;48.216;-1.698;2024-03-23T14:32:30;1.50;;;1.00;;
16862;SDS011;52193;48.216;-1.698;2024-03-23T14:34:59;2.45;;;1.40;;
16862;SDS011;52193;48.216;-1.698;2024-03-23T14:37:25;2.90;;;1.75;;
16862;SDS011;52193;48.216;-1.698;2024-03-23T14:39:51;2.20;;;1.50;;
16862;SDS011;52193;48.216;-1.698;2024-03-23T14:42:17;1.75;;;1.50;;
16862;SDS011;52193;48.216;-1.698;2024-03-23T14:44:46;2.35;;;1.52;;
16862;SDS011;52193;48.216;-1.698;2024-03-23T14:47:12;2.42;;;1.65;;
16862;SDS011;52193;48.216;-1.698;2024-03-23T14:49:39;1.60;;;1.50;;
16862;SDS011;52193;48.216;-1.698;2024-03-23T14:52:05;3.10;;;2.08;;
16862;SDS011;52193;48.216;-1.698;2024-03-23T14:54:32;3.03;;;1.30;;
16862;SDS011;52193;48.216;-1.698;2024-03-23T14:56:58;1.83;;;1.27;;
16862;SDS011;52193;48.216;-1.698;2024-03-23T14:59:25;2.15;;;1.25;;
16862;SDS011;52193;48.216;-1.698;2024-03-23T15:01:52;2.67;;;1.60;;
16862;SDS011;52193;48.216;-1.698;2024-03-23T15:04:19;2.30;;;1.50;;
16862;SDS011;52193;48.216;-1.698;2024-03-23T15:06:45;2.65;;;1.50;;
16862;SDS011;52193;48.216;-1.698;2024-03-23T15:09:14;2.35;;;1.63;;
16862;SDS011;52193;48.216;-1.698;2024-03-23T15:11:40;2.15;;;1.20;;
16862;SDS011;52193;48.216;-1.698;2024-03-23T15:14:07;2.72;;;2.20;;
16862;SDS011;52193;48.216;-1.698;2024-03-23T15:16:33;1.70;;;1.60;;
16862;SDS011;52193;48.216;-1.698;2024-03-23T15:19:01;2.55;;;1.70;;
16862;SDS011;52193;48.216;-1.698;2024-03-23T15:21:27;2.30;;;1.60;;
16862;SDS011;52193;48.216;-1.698;2024-03-23T15:23:54;2.08;;;1.20;;
16862;SDS011;52193;48.216;-1.698;2024-03-23T15:26:21;3.33;;;1.30;;
16862;SDS011;52193;48.216;-1.698;2024-03-23T15:28:47;2.75;;;1.90;;
16862;SDS011;52193;48.216;-1.698;2024-03-23T15:31:34;2.22;;;1.40;;
16862;SDS011;52193;48.216;-1.698;2024-03-23T15:34:03;6.43;;;2.40;;
16862;SDS011;52193;48.216;-1.698;2024-03-23T15:36:29;4.10;;;2.10;;